Time;durP1;ratioP1;P1;durP2;ratioP2;P2;SDS_P1;SDS_P2;PMS_P1;PMS_P2;Temp;Humidity;BMP_temperature;BMP_pressure;BME280_temperature;BME280_humidity;BME280_pressure;Samples;Min_cycle;Max_cycle;Signal;HPM_P1;HPM_P2
2022/07/26 00:01:21;;;;;;;44.88;19.83;;;;;;;;;;5130130;27;20050;-73
2022/07/26 00:04:00;;;;;;;45.30;19.10;;;;;;;;;;5129491;27;20051;-74
2022/07/26 00:06:30;;;;;;;44.08;18.77;;;;;;;;;;5128896;27;20541;-72
2022/07/26 00:09:00;;;;;;;47.83;21.30;;;;;;;;;;5127403;27;20055;-74
2022/07/26 00:11:32;;;;;;;43.40;19.88;;;;;;;;;;5129559;27;20467;-74
2022/07/26 00:14:05;;;;;;;45.10;18.25;;;;;;;;;;5128646;27;20063;-72
2022/07/26 00:16:35;;;;;;;38.13;17.33;;;;;;;;;;5129060;27;20045;-72
2022/07/26 00:19:06;;;;;;;40.95;18.52;;;;;;;;;;5129921;27;20050;-72
2022/07/26 00:21:37;;;;;;;38.60;17.55;;;;;;;;;;5129405;27;20054;-72
2022/07/26 00:24:09;;;;;;;46.42;18.52;;;;;;;;;;5129266;27;20065;-73
2022/07/26 00:26:39;;;;;;;34.42;17.70;;;;;;;;;;5128465;27;20054;-73
2022/07/26 00:29:09;;;;;;;39.13;17.83;;;;;;;;;;5129425;27;20047;-74
2022/07/26 00:31:40;;;;;;;43.05;17.73;;;;;;;;;;5129245;27;20043;-73
2022/07/26 00:34:10;;;;;;;34.75;17.10;;;;;;;;;;5128304;27;20050;-73
2022/07/26 00:36:40;;;;;;;31.35;15.23;;;;;;;;;;5128711;27;20047;-74
2022/07/26 00:39:10;;;;;;;31.67;15.63;;;;;;;;;;5128833;27;20043;-73
2022/07/26 00:41:39;;;;;;;31.52;15.05;;;;;;;;;;5128358;27;20502;-73
2022/07/26 00:44:09;;;;;;;25.30;13.82;;;;;;;;;;5128542;27;20043;-73
2022/07/26 00:46:42;;;;;;;26.80;12.13;;;;;;;;;;5128484;27;20058;-73
2022/07/26 00:49:13;;;;;;;27.38;14.52;;;;;;;;;;5128784;27;20047;-73
2022/07/26 00:51:43;;;;;;;23.48;12.93;;;;;;;;;;5129220;27;20051;-73
2022/07/26 00:54:16;;;;;;;22.38;11.60;;;;;;;;;;5128464;27;20058;-73
2022/07/26 00:56:47;;;;;;;25.52;14.05;;;;;;;;;;5129294;27;20540;-73
2022/07/26 00:59:22;;;;;;;25.88;13.05;;;;;;;;;;5128589;27;20043;-73
2022/07/26 01:01:53;;;;;;;23.80;12.13;;;;;;;;;;5129250;27;20035;-73
2022/07/26 01:04:23;;;;;;;26.73;14.73;;;;;;;;;;5128119;27;20051;-73
2022/07/26 01:06:53;;;;;;;24.85;13.27;;;;;;;;;;5127843;27;20055;-73
2022/07/26 01:09:23;;;;;;;25.00;12.98;;;;;;;;;;5125885;27;20047;-74
2022/07/26 01:11:53;;;;;;;18.17;11.98;;;;;;;;;;5124824;27;20051;-73
2022/07/26 01:14:23;;;;;;;21.83;13.20;;;;;;;;;;5127234;27;20047;-73
2022/07/26 01:16:53;;;;;;;22.15;11.48;;;;;;;;;;5127487;27;20437;-73
2022/07/26 01:19:23;;;;;;;24.98;12.82;;;;;;;;;;5127766;27;20070;-73
2022/07/26 01:21:53;;;;;;;20.98;11.13;;;;;;;;;;5126921;27;21112;-73
2022/07/26 01:24:23;;;;;;;21.58;11.55;;;;;;;;;;5125924;27;20422;-73
2022/07/26 01:26:54;;;;;;;23.13;12.20;;;;;;;;;;5126506;27;20050;-73
2022/07/26 01:29:24;;;;;;;19.50;11.88;;;;;;;;;;5125877;27;20564;-73
2022/07/26 01:32:05;;;;;;;18.35;12.10;;;;;;;;;;5126244;27;20049;-73
2022/07/26 01:34:35;;;;;;;20.02;11.70;;;;;;;;;;5125608;27;20066;-73
2022/07/26 01:37:05;;;;;;;18.65;12.27;;;;;;;;;;5127413;27;20047;-74
2022/07/26 01:39:36;;;;;;;18.88;10.98;;;;;;;;;;5127941;27;20051;-73
2022/07/26 01:42:06;;;;;;;20.63;11.38;;;;;;;;;;5127628;27;20536;-73
2022/07/26 01:44:35;;;;;;;21.42;11.30;;;;;;;;;;5128359;27;20039;-73
2022/07/26 01:47:05;;;;;;;20.58;11.80;;;;;;;;;;5128420;27;20406;-73
2022/07/26 01:49:36;;;;;;;17.10;10.35;;;;;;;;;;5127941;27;20054;-73
2022/07/26 01:52:05;;;;;;;19.13;11.77;;;;;;;;;;5127847;27;20043;-73
2022/07/26 01:54:36;;;;;;;20.70;11.25;;;;;;;;;;5127803;27;20490;-73
2022/07/26 01:57:07;;;;;;;20.17;11.52;;;;;;;;;;5127483;27;20047;-73
2022/07/26 01:59:37;;;;;;;22.10;12.40;;;;;;;;;;5127668;28;20047;-73
2022/07/26 02:02:06;;;;;;;16.83;10.90;;;;;;;;;;5127160;27;20044;-73
2022/07/26 02:07:27;;;;;;;22.52;12.55;;;;;;;;;;5127963;28;20046;-73
2022/07/26 02:09:58;;;;;;;23.75;13.40;;;;;;;;;;5127245;27;20082;-73
2022/07/26 02:12:28;;;;;;;20.98;12.52;;;;;;;;;;5127788;27;20039;-73
2022/07/26 02:14:58;;;;;;;23.27;12.77;;;;;;;;;;5127673;28;20391;-73
2022/07/26 02:17:28;;;;;;;24.23;12.57;;;;;;;;;;5127508;28;20039;-73
2022/07/26 02:19:58;;;;;;;23.40;12.52;;;;;;;;;;5127267;28;20065;-73
2022/07/26 02:22:28;;;;;;;30.35;12.93;;;;;;;;;;5127755;28;20043;-73
2022/07/26 02:24:58;;;;;;;24.30;12.30;;;;;;;;;;5127872;28;20043;-73
2022/07/26 02:27:33;;;;;;;24.25;12.18;;;;;;;;;;5127460;28;20047;-73
2022/07/26 02:30:03;;;;;;;21.85;12.05;;;;;;;;;;5127331;28;20564;-73
2022/07/26 02:32:33;;;;;;;24.30;13.90;;;;;;;;;;5127505;28;20050;-73
2022/07/26 02:35:03;;;;;;;23.25;12.60;;;;;;;;;;5127476;28;20521;-73
2022/07/26 02:37:33;;;;;;;27.92;12.07;;;;;;;;;;5127693;28;20039;-73
2022/07/26 02:40:12;;;;;;;25.20;12.80;;;;;;;;;;5127171;28;20043;-73
2022/07/26 02:42:47;;;;;;;21.23;11.85;;;;;;;;;;5127457;28;20051;-73
2022/07/26 02:45:17;;;;;;;24.60;12.85;;;;;;;;;;5127322;28;20043;-74
2022/07/26 02:47:52;;;;;;;22.35;11.80;;;;;;;;;;5126796;28;20059;-73
2022/07/26 02:50:24;;;;;;;21.85;12.52;;;;;;;;;;5127609;28;20039;-73
2022/07/26 02:52:55;;;;;;;23.38;12.60;;;;;;;;;;5127304;28;20043;-74
2022/07/26 02:55:26;;;;;;;23.50;12.57;;;;;;;;;;5127045;28;20047;-73
2022/07/26 02:57:56;;;;;;;25.45;12.15;;;;;;;;;;5126955;28;20047;-73
2022/07/26 03:00:27;;;;;;;26.58;12.35;;;;;;;;;;5127069;28;20046;-73
2022/07/26 03:02:57;;;;;;;26.52;13.18;;;;;;;;;;5127092;28;20050;-73
2022/07/26 03:05:29;;;;;;;27.33;14.52;;;;;;;;;;5127396;28;20047;-73
2022/07/26 03:07:59;;;;;;;23.23;13.20;;;;;;;;;;5127161;28;20482;-73
2022/07/26 03:10:29;;;;;;;29.38;14.52;;;;;;;;;;5126872;28;20043;-74
2022/07/26 03:12:59;;;;;;;27.88;14.38;;;;;;;;;;5125861;27;20409;-73
2022/07/26 03:15:29;;;;;;;24.27;13.80;;;;;;;;;;5131124;27;20054;-73
2022/07/26 03:17:59;;;;;;;30.27;15.43;;;;;;;;;;5129538;27;20074;-73
2022/07/26 03:20:29;;;;;;;28.40;14.07;;;;;;;;;;5130401;27;20054;-73
2022/07/26 03:22:59;;;;;;;22.42;13.20;;;;;;;;;;5130426;27;20047;-73
2022/07/26 03:25:29;;;;;;;21.13;12.20;;;;;;;;;;5130030;27;20054;-73
2022/07/26 03:27:58;;;;;;;26.80;13.07;;;;;;;;;;5129817;27;20065;-73
2022/07/26 03:30:28;;;;;;;28.17;13.50;;;;;;;;;;5129644;27;20050;-73
2022/07/26 03:32:58;;;;;;;27.58;13.98;;;;;;;;;;5130248;27;20516;-73
2022/07/26 03:35:28;;;;;;;31.67;13.32;;;;;;;;;;5128765;27;20054;-74
2022/07/26 03:38:05;;;;;;;26.50;13.52;;;;;;;;;;5129859;27;20506;-73
2022/07/26 03:40:35;;;;;;;24.52;12.32;;;;;;;;;;5129815;27;20061;-73
2022/07/26 03:43:04;;;;;;;28.70;13.82;;;;;;;;;;5129830;27;20054;-73
2022/07/26 03:45:35;;;;;;;27.33;13.93;;;;;;;;;;5130125;27;20410;-74
2022/07/26 03:48:05;;;;;;;26.80;14.05;;;;;;;;;;5130048;27;20047;-73
2022/07/26 03:50:34;;;;;;;27.58;14.48;;;;;;;;;;5129811;27;20043;-73
2022/07/26 03:53:05;;;;;;;29.35;15.05;;;;;;;;;;5130020;27;20058;-73
2022/07/26 03:58:22;;;;;;;;;;;;;;;;;;5130845;27;20039;-73
2022/07/26 04:00:52;;;;;;;23.38;12.57;;;;;;;;;;5130061;27;20302;-73
2022/07/26 04:03:22;;;;;;;24.17;13.48;;;;;;;;;;5129536;27;20050;-73
2022/07/26 04:05:52;;;;;;;27.08;14.27;;;;;;;;;;5129393;27;20051;-73
2022/07/26 04:08:23;;;;;;;24.02;12.75;;;;;;;;;;5129348;27;20046;-73
2022/07/26 04:10:53;;;;;;;25.25;13.13;;;;;;;;;;5129927;27;20050;-73
2022/07/26 04:13:23;;;;;;;27.50;13.32;;;;;;;;;;5129707;27;20050;-73
2022/07/26 04:15:53;;;;;;;25.15;12.63;;;;;;;;;;5129324;27;20047;-73
2022/07/26 04:18:23;;;;;;;26.30;13.18;;;;;;;;;;5129405;27;20508;-73
2022/07/26 04:20:53;;;;;;;22.63;12.25;;;;;;;;;;5129516;27;20055;-73
2022/07/26 04:23:22;;;;;;;22.33;12.65;;;;;;;;;;5129792;27;20054;-73
2022/07/26 04:25:53;;;;;;;18.13;11.05;;;;;;;;;;5129276;27;20422;-73
2022/07/26 04:28:25;;;;;;;24.38;12.68;;;;;;;;;;5129778;27;20047;-73
2022/07/26 04:30:56;;;;;;;18.92;11.57;;;;;;;;;;5128611;27;20521;-73
2022/07/26 04:33:27;;;;;;;28.52;14.48;;;;;;;;;;5129147;27;20051;-73
2022/07/26 04:35:57;;;;;;;22.48;13.38;;;;;;;;;;5129238;27;20054;-73
2022/07/26 04:38:26;;;;;;;23.55;13.57;;;;;;;;;;5129358;27;20054;-73
2022/07/26 04:40:56;;;;;;;20.20;10.52;;;;;;;;;;5128829;27;20043;-73
2022/07/26 04:43:26;;;;;;;25.45;13.75;;;;;;;;;;5128754;27;20525;-73
2022/07/26 04:45:56;;;;;;;23.13;13.40;;;;;;;;;;5128752;27;20055;-73
2022/07/26 04:48:27;;;;;;;19.80;12.02;;;;;;;;;;5128807;27;20927;-73
2022/07/26 04:50:56;;;;;;;20.75;11.50;;;;;;;;;;5129005;27;20441;-73
2022/07/26 04:53:26;;;;;;;24.17;13.45;;;;;;;;;;5129085;27;20054;-73
2022/07/26 04:55:56;;;;;;;21.13;12.77;;;;;;;;;;5128208;27;20043;-73
2022/07/26 04:58:26;;;;;;;;;;;;;;;;;;5129303;27;20051;-73
2022/07/26 05:00:55;;;;;;;17.98;11.07;;;;;;;;;;5128810;27;19923;-73
2022/07/26 05:03:41;;;;;;;22.63;13.40;;;;;;;;;;5127347;27;20820;-73
2022/07/26 05:06:10;;;;;;;;;;;;;;;;;;5128786;27;20047;-73
2022/07/26 05:08:42;;;;;;;19.98;11.48;;;;;;;;;;5128424;27;19920;-73
2022/07/26 05:11:12;;;;;;;23.98;12.73;;;;;;;;;;5128801;27;20074;-73
2022/07/26 05:13:42;;;;;;;19.95;11.50;;;;;;;;;;5128429;27;20481;-73
2022/07/26 05:16:12;;;;;;;22.92;11.73;;;;;;;;;;5128650;27;20054;-73
2022/07/26 05:18:42;;;;;;;20.85;10.88;;;;;;;;;;5136960;27;20035;-73
2022/07/26 05:21:18;;;;;;;18.52;11.73;;;;;;;;;;5128495;27;20820;-73
2022/07/26 05:23:48;;;;;;;18.95;10.90;;;;;;;;;;5128221;27;20047;-73
2022/07/26 05:26:18;;;;;;;21.08;12.50;;;;;;;;;;5128241;27;20047;-73
2022/07/26 05:28:47;;;;;;;22.15;13.50;;;;;;;;;;5128549;27;20065;-73
2022/07/26 05:31:17;;;;;;;22.95;13.32;;;;;;;;;;5130944;27;20054;-74
2022/07/26 05:33:47;;;;;;;19.48;12.55;;;;;;;;;;5154899;27;20018;-73
2022/07/26 05:36:18;;;;;;;21.13;11.88;;;;;;;;;;5152978;27;20020;-73
2022/07/26 05:38:49;;;;;;;20.70;12.30;;;;;;;;;;5154228;27;20034;-73
2022/07/26 05:41:19;;;;;;;21.83;12.15;;;;;;;;;;5154861;27;20012;-73
2022/07/26 05:43:48;;;;;;;22.23;12.02;;;;;;;;;;5155160;27;20652;-73
2022/07/26 05:46:18;;;;;;;20.42;12.48;;;;;;;;;;5139527;27;20046;-73
2022/07/26 05:48:49;;;;;;;21.35;13.13;;;;;;;;;;5128012;27;20039;-73
2022/07/26 05:51:21;;;;;;;20.50;11.77;;;;;;;;;;5127811;27;20047;-73
2022/07/26 05:53:52;;;;;;;19.20;11.63;;;;;;;;;;5127742;27;20047;-73
2022/07/26 05:56:22;;;;;;;20.45;11.57;;;;;;;;;;5127524;27;20050;-73
2022/07/26 05:58:52;;;;;;;22.95;11.52;;;;;;;;;;5127620;27;20050;-73
2022/07/26 06:01:21;;;;;;;21.13;12.75;;;;;;;;;;5127614;28;20043;-73
2022/07/26 06:03:51;;;;;;;21.75;11.85;;;;;;;;;;5127779;28;20344;-73
2022/07/26 06:06:22;;;;;;;23.42;12.68;;;;;;;;;;5127573;28;20043;-73
2022/07/26 06:08:53;;;;;;;21.80;11.35;;;;;;;;;;5127511;28;20035;-73
2022/07/26 06:11:23;;;;;;;19.13;10.27;;;;;;;;;;5127800;28;20054;-73
2022/07/26 06:13:52;;;;;;;22.33;11.07;;;;;;;;;;5126728;28;20047;-73
2022/07/26 06:16:24;;;;;;;20.20;10.13;;;;;;;;;;5127564;28;20047;-73
2022/07/26 06:18:54;;;;;;;20.33;9.88;;;;;;;;;;5127232;28;20699;-73
2022/07/26 06:21:24;;;;;;;19.45;10.65;;;;;;;;;;5127562;28;20058;-73
2022/07/26 06:23:54;;;;;;;21.45;10.38;;;;;;;;;;5127705;28;20047;-70
2022/07/26 06:26:23;;;;;;;17.02;11.23;;;;;;;;;;5128179;28;20043;-71
2022/07/26 06:28:53;;;;;;;18.52;10.48;;;;;;;;;;5126925;27;20054;-71
2022/07/26 06:31:24;;;;;;;18.73;9.40;;;;;;;;;;5127592;28;20070;-71
2022/07/26 06:33:54;;;;;;;15.13;9.60;;;;;;;;;;5127893;28;20498;-71
2022/07/26 06:36:24;;;;;;;17.42;10.63;;;;;;;;;;5127327;28;20051;-71
2022/07/26 06:38:58;;;;;;;16.88;10.25;;;;;;;;;;5127597;28;20043;-71
2022/07/26 06:41:28;;;;;;;15.43;9.43;;;;;;;;;;5127737;28;20048;-71
2022/07/26 06:43:58;;;;;;;17.25;9.55;;;;;;;;;;5127678;28;20576;-71
2022/07/26 06:46:28;;;;;;;18.90;11.13;;;;;;;;;;5126989;28;20063;-72
2022/07/26 06:48:58;;;;;;;14.45;9.07;;;;;;;;;;5130556;27;20051;-72
2022/07/26 06:51:28;;;;;;;14.23;8.65;;;;;;;;;;5131420;27;20047;-71
2022/07/26 06:53:58;;;;;;;17.17;9.20;;;;;;;;;;5131422;27;20055;-71
2022/07/26 06:56:28;;;;;;;18.90;10.35;;;;;;;;;;5131221;27;20054;-71
2022/07/26 06:58:58;;;;;;;18.27;10.40;;;;;;;;;;5130070;27;20047;-71
2022/07/26 07:01:29;;;;;;;16.08;11.07;;;;;;;;;;5131675;27;20058;-71
2022/07/26 07:04:20;;;;;;;14.93;9.23;;;;;;;;;;5130310;27;20043;-72
2022/07/26 07:06:50;;;;;;;15.80;8.95;;;;;;;;;;5130923;27;20050;-72
2022/07/26 07:09:23;;;;;;;15.18;8.48;;;;;;;;;;5129678;27;20124;-72
2022/07/26 07:11:53;;;;;;;14.65;9.27;;;;;;;;;;5131000;27;20047;-72
2022/07/26 07:14:35;;;;;;;15.23;8.80;;;;;;;;;;5130741;27;20055;-73
2022/07/26 07:17:08;;;;;;;17.23;8.75;;;;;;;;;;5112696;27;20050;-72
2022/07/26 07:19:43;;;;;;;15.55;9.70;;;;;;;;;;5130220;27;20035;-72
2022/07/26 07:22:13;;;;;;;14.32;8.80;;;;;;;;;;5130686;27;20051;-72
2022/07/26 07:24:43;;;;;;;14.55;8.98;;;;;;;;;;5130406;27;20043;-72
2022/07/26 07:27:14;;;;;;;15.02;7.70;;;;;;;;;;5130971;27;20039;-72
2022/07/26 07:29:44;;;;;;;15.98;8.25;;;;;;;;;;5131366;27;20047;-72
2022/07/26 07:32:14;;;;;;;14.65;9.27;;;;;;;;;;5130486;27;20040;-72
2022/07/26 07:34:48;;;;;;;14.48;8.43;;;;;;;;;;5130789;27;20062;-73
2022/07/26 07:37:19;;;;;;;14.38;9.68;;;;;;;;;;5130291;27;20047;-72
2022/07/26 07:39:49;;;;;;;13.68;8.20;;;;;;;;;;5128941;27;20058;-72
2022/07/26 07:42:19;;;;;;;14.18;8.70;;;;;;;;;;5130571;27;20055;-72
2022/07/26 07:44:48;;;;;;;12.45;8.23;;;;;;;;;;5130001;27;20508;-72
2022/07/26 07:47:18;;;;;;;12.15;7.00;;;;;;;;;;5129758;27;20414;-72
2022/07/26 07:49:48;;;;;;;11.07;7.53;;;;;;;;;;5130351;27;20495;-73
2022/07/26 07:52:18;;;;;;;15.20;7.78;;;;;;;;;;5129074;27;20058;-73
2022/07/26 07:54:48;;;;;;;10.60;6.75;;;;;;;;;;5130294;27;20039;-72
2022/07/26 07:57:19;;;;;;;10.82;8.30;;;;;;;;;;5130109;27;20047;-72
2022/07/26 07:59:52;;;;;;;11.32;8.23;;;;;;;;;;5128980;27;20043;-73
2022/07/26 08:02:21;;;;;;;14.93;8.02;;;;;;;;;;5130361;27;20047;-73
2022/07/26 08:04:52;;;;;;;11.20;8.00;;;;;;;;;;5129224;27;20051;-72
2022/07/26 08:07:27;;;;;;;13.27;8.32;;;;;;;;;;5129266;27;20066;-72
2022/07/26 08:10:05;;;;;;;14.00;7.57;;;;;;;;;;5129483;27;20039;-72
2022/07/26 08:12:35;;;;;;;11.80;7.07;;;;;;;;;;5128434;27;20406;-72
2022/07/26 08:15:06;;;;;;;17.83;8.07;;;;;;;;;;5129017;27;20506;-72
2022/07/26 08:17:36;;;;;;;11.35;8.63;;;;;;;;;;5128859;27;20046;-72
2022/07/26 08:20:10;;;;;;;15.98;7.93;;;;;;;;;;5128215;27;20047;-72
2022/07/26 08:22:43;;;;;;;11.55;8.75;;;;;;;;;;5129402;27;20047;-73
2022/07/26 08:25:13;;;;;;;13.73;7.47;;;;;;;;;;5129414;27;20043;-72
2022/07/26 08:27:43;;;;;;;12.15;8.35;;;;;;;;;;5128839;27;20043;-73
2022/07/26 08:30:32;;;;;;;13.73;7.68;;;;;;;;;;5116302;27;20051;-72
2022/07/26 08:33:03;;;;;;;11.98;8.15;;;;;;;;;;5129193;27;20035;-72
2022/07/26 08:35:33;;;;;;;13.93;8.32;;;;;;;;;;5129398;27;20517;-72
2022/07/26 08:38:02;;;;;;;14.55;7.85;;;;;;;;;;5127926;27;20058;-72
2022/07/26 08:40:33;;;;;;;12.35;8.55;;;;;;;;;;5128389;27;20049;-72
2022/07/26 08:43:03;;;;;;;12.23;7.65;;;;;;;;;;5128662;27;20050;-72
2022/07/26 08:45:33;;;;;;;11.63;7.93;;;;;;;;;;5128359;27;20051;-73
2022/07/26 08:48:03;;;;;;;9.65;6.72;;;;;;;;;;5128492;27;20054;-72
2022/07/26 08:50:48;;;;;;;10.93;7.10;;;;;;;;;;5128141;27;20050;-72
2022/07/26 08:53:19;;;;;;;10.77;7.45;;;;;;;;;;5128279;27;20055;-73
2022/07/26 08:55:49;;;;;;;12.88;7.10;;;;;;;;;;5128513;27;20776;-73
2022/07/26 08:58:36;;;;;;;9.32;7.20;;;;;;;;;;5126924;27;20497;-72
2022/07/26 09:01:11;;;;;;;9.23;6.90;;;;;;;;;;5127576;27;20414;-72
2022/07/26 09:03:43;;;;;;;11.65;7.57;;;;;;;;;;5128224;27;20096;-72
2022/07/26 09:06:20;;;;;;;10.90;7.13;;;;;;;;;;5128708;27;20039;-71
2022/07/26 09:09:11;;;;;;;9.93;7.47;;;;;;;;;;5128587;27;20375;-71
2022/07/26 09:11:41;;;;;;;11.13;7.78;;;;;;;;;;5128183;27;20518;-71
2022/07/26 09:14:11;;;;;;;10.13;6.97;;;;;;;;;;5126776;27;20050;-71
2022/07/26 09:16:40;;;;;;;11.13;7.40;;;;;;;;;;5128177;27;20386;-71
2022/07/26 09:19:17;;;;;;;11.15;7.78;;;;;;;;;;5128325;27;20413;-71
2022/07/26 09:21:48;;;;;;;10.18;6.43;;;;;;;;;;5127869;27;20414;-71
2022/07/26 09:24:33;;;;;;;13.68;8.07;;;;;;;;;;5128236;27;20038;-71
2022/07/26 09:27:05;;;;;;;12.48;7.40;;;;;;;;;;5128332;27;20043;-73
2022/07/26 09:29:48;;;;;;;12.73;8.73;;;;;;;;;;5127238;27;20039;-72
2022/07/26 09:32:20;;;;;;;12.98;7.95;;;;;;;;;;5126500;27;20051;-73
2022/07/26 09:35:09;;;;;;;12.20;7.80;;;;;;;;;;5126122;27;20050;-73
2022/07/26 09:37:59;;;;;;;12.30;8.07;;;;;;;;;;5126016;27;20047;-72
2022/07/26 09:40:34;;;;;;;13.18;7.88;;;;;;;;;;5124343;27;20065;-72
2022/07/26 09:43:06;;;;;;;13.55;7.88;;;;;;;;;;5125402;27;20043;-73
2022/07/26 09:45:40;;;;;;;14.73;9.40;;;;;;;;;;5125265;27;20047;-73
2022/07/26 09:48:11;;;;;;;19.13;13.10;;;;;;;;;;5128407;27;20042;-72
2022/07/26 09:50:47;;;;;;;13.43;9.38;;;;;;;;;;5128119;27;20043;-71
2022/07/26 09:53:20;;;;;;;16.10;10.70;;;;;;;;;;5127475;27;20526;-71
2022/07/26 09:55:50;;;;;;;13.23;9.52;;;;;;;;;;5127468;27;20043;-71
2022/07/26 09:58:21;;;;;;;14.43;7.95;;;;;;;;;;5109077;28;20062;-72
2022/07/26 10:00:51;;;;;;;12.43;7.88;;;;;;;;;;5127770;27;20066;-72
2022/07/26 10:03:25;;;;;;;10.13;7.72;;;;;;;;;;5127889;27;20053;-72
2022/07/26 10:05:57;;;;;;;13.77;7.15;;;;;;;;;;5127184;28;20047;-72
2022/07/26 10:08:28;;;;;;;9.65;6.60;;;;;;;;;;5127147;28;20047;-73
2022/07/26 10:11:00;;;;;;;11.07;7.50;;;;;;;;;;5127926;28;20055;-71
2022/07/26 10:13:31;;;;;;;10.15;6.80;;;;;;;;;;5127571;28;20532;-72
2022/07/26 10:16:01;;;;;;;9.65;6.40;;;;;;;;;;5127465;28;20050;-73
2022/07/26 10:18:37;;;;;;;8.77;6.10;;;;;;;;;;5127311;28;20486;-73
2022/07/26 10:21:20;;;;;;;10.55;6.68;;;;;;;;;;5127311;28;20035;-71
2022/07/26 10:23:57;;;;;;;7.60;6.10;;;;;;;;;;5130936;27;20054;-71
2022/07/26 10:26:35;;;;;;;9.10;5.85;;;;;;;;;;5131968;27;20066;-71
2022/07/26 10:29:17;;;;;;;7.10;5.10;;;;;;;;;;5132105;27;20042;-72
2022/07/26 10:31:48;;;;;;;7.28;5.60;;;;;;;;;;5131522;27;20046;-71
2022/07/26 10:34:33;;;;;;;6.25;5.50;;;;;;;;;;5132656;27;20498;-71
2022/07/26 10:37:09;;;;;;;8.98;5.88;;;;;;;;;;5131238;27;20490;-73
2022/07/26 10:39:39;;;;;;;9.10;5.90;;;;;;;;;;5131376;27;20039;-72
2022/07/26 10:42:10;;;;;;;8.18;5.35;;;;;;;;;;5131617;27;20394;-73
2022/07/26 10:44:43;;;;;;;8.57;5.63;;;;;;;;;;5130659;27;20062;-72
2022/07/26 10:47:17;;;;;;;7.70;5.55;;;;;;;;;;5131165;27;20048;-72
2022/07/26 10:49:57;;;;;;;14.55;6.25;;;;;;;;;;5131422;27;20039;-73
2022/07/26 10:52:31;;;;;;;7.05;5.50;;;;;;;;;;5131572;27;20047;-73
2022/07/26 10:55:02;;;;;;;5.82;4.45;;;;;;;;;;5132207;27;20039;-73
2022/07/26 10:57:37;;;;;;;7.22;4.75;;;;;;;;;;5131915;27;20402;-72
2022/07/26 11:00:28;;;;;;;7.68;6.15;;;;;;;;;;5131996;27;20051;-74
2022/07/26 11:02:59;;;;;;;8.05;6.20;;;;;;;;;;5131185;27;20054;-73
2022/07/26 11:05:32;;;;;;;9.55;6.18;;;;;;;;;;5129385;27;20055;-73
2022/07/26 11:08:07;;;;;;;11.30;6.10;;;;;;;;;;5130671;27;20414;-73
2022/07/26 11:10:38;;;;;;;10.68;7.43;;;;;;;;;;5131137;27;20047;-72
2022/07/26 11:13:15;;;;;;;7.80;6.43;;;;;;;;;;5130535;27;20051;-73
2022/07/26 11:15:59;;;;;;;12.07;6.47;;;;;;;;;;5130793;27;20051;-72
2022/07/26 11:18:36;;;;;;;9.27;6.28;;;;;;;;;;5130974;27;20047;-73
2022/07/26 11:21:14;;;;;;;8.63;5.75;;;;;;;;;;5130928;27;20043;-72
2022/07/26 11:23:46;;;;;;;8.50;6.30;;;;;;;;;;5128794;27;20433;-72
2022/07/26 11:26:24;;;;;;;9.32;6.38;;;;;;;;;;5128400;27;20532;-73
2022/07/26 11:29:01;;;;;;;11.40;6.10;;;;;;;;;;5109973;28;20406;-73
2022/07/26 11:31:41;;;;;;;10.65;6.82;;;;;;;;;;5107902;28;20066;-72
2022/07/26 11:34:32;;;;;;;11.15;6.85;;;;;;;;;;5106868;28;20403;-73
2022/07/26 11:37:05;;;;;;;12.95;7.50;;;;;;;;;;5109055;28;20036;-73
2022/07/26 11:39:36;;;;;;;11.15;6.97;;;;;;;;;;5107275;28;20039;-73
2022/07/26 11:42:11;;;;;;;20.95;8.27;;;;;;;;;;5109043;28;20059;-72
2022/07/26 11:44:44;;;;;;;;;;;;;;;;;;5108772;28;20047;-72
2022/07/26 11:47:20;;;;;;;10.20;7.80;;;;;;;;;;5109530;28;19927;-73
2022/07/26 11:49:54;;;;;;;12.40;7.20;;;;;;;;;;5109478;28;20403;-73
2022/07/26 11:52:44;;;;;;;9.80;7.47;;;;;;;;;;5108938;28;20059;-72
2022/07/26 11:55:13;;;;;;;10.10;6.75;;;;;;;;;;5109525;28;20058;-74
2022/07/26 11:57:44;;;;;;;10.65;6.70;;;;;;;;;;5109278;28;20047;-73
2022/07/26 12:00:14;;;;;;;10.15;6.60;;;;;;;;;;5109275;28;20050;-73
2022/07/26 12:02:44;;;;;;;10.50;6.65;;;;;;;;;;5109559;28;20054;-72
2022/07/26 12:05:20;;;;;;;18.50;8.48;;;;;;;;;;5109095;28;20051;-72
2022/07/26 12:08:03;;;;;;;11.60;8.15;;;;;;;;;;5109145;28;20047;-72
2022/07/26 12:10:33;;;;;;;13.70;7.90;;;;;;;;;;5109043;28;20055;-72
2022/07/26 12:13:11;;;;;;;11.70;7.38;;;;;;;;;;5108818;28;20054;-73
2022/07/26 12:15:49;;;;;;;11.88;7.75;;;;;;;;;;5109720;28;20063;-72
2022/07/26 12:18:29;;;;;;;11.00;7.72;;;;;;;;;;5107640;28;20047;-73
2022/07/26 12:21:02;;;;;;;11.77;7.95;;;;;;;;;;5109170;28;20054;-73
2022/07/26 12:23:51;;;;;;;14.05;8.27;;;;;;;;;;5107550;28;20044;-73
2022/07/26 12:26:25;;;;;;;22.83;8.77;;;;;;;;;;5108752;28;20051;-73
2022/07/26 12:28:56;;;;;;;18.50;9.32;;;;;;;;;;5109102;28;20043;-75
2022/07/26 12:31:31;;;;;;;10.43;7.88;;;;;;;;;;5108755;28;20043;-73
2022/07/26 12:34:02;;;;;;;14.75;7.53;;;;;;;;;;5108554;28;20048;-74
2022/07/26 12:36:33;;;;;;;14.40;9.25;;;;;;;;;;5109088;28;20058;-73
2022/07/26 12:39:04;;;;;;;15.75;7.55;;;;;;;;;;5107234;28;20423;-73
2022/07/26 12:41:37;;;;;;;10.90;7.18;;;;;;;;;;5108689;28;20044;-73
2022/07/26 12:44:11;;;;;;;11.88;8.13;;;;;;;;;;5108083;28;20038;-74
2022/07/26 12:46:43;;;;;;;13.80;6.93;;;;;;;;;;5107701;28;20056;-73
2022/07/26 12:49:13;;;;;;;8.68;6.53;;;;;;;;;;5108157;28;20047;-73
2022/07/26 12:51:43;;;;;;;14.65;7.65;;;;;;;;;;5107665;28;20047;-73
2022/07/26 12:54:13;;;;;;;8.05;6.20;;;;;;;;;;5108097;28;20059;-73
2022/07/26 12:56:43;;;;;;;10.25;7.18;;;;;;;;;;5108222;28;20075;-73
2022/07/26 12:59:16;;;;;;;11.13;7.05;;;;;;;;;;5107932;28;20043;-73
2022/07/26 13:01:46;;;;;;;11.35;6.90;;;;;;;;;;5108169;28;20052;-73
2022/07/26 13:04:16;;;;;;;10.02;6.30;;;;;;;;;;5107782;28;20388;-73
2022/07/26 13:06:46;;;;;;;11.65;7.95;;;;;;;;;;5106946;28;20058;-73
2022/07/26 13:09:16;;;;;;;10.52;6.70;;;;;;;;;;5108072;28;20054;-73
2022/07/26 13:11:46;;;;;;;12.50;7.15;;;;;;;;;;5107581;28;20062;-73
2022/07/26 13:14:16;;;;;;;12.27;7.57;;;;;;;;;;5107536;28;20503;-74
2022/07/26 13:16:46;;;;;;;11.60;6.38;;;;;;;;;;5107868;28;20147;-73
2022/07/26 13:19:16;;;;;;;12.57;6.75;;;;;;;;;;5107332;28;20043;-73
2022/07/26 13:21:45;;;;;;;6.40;4.97;;;;;;;;;;5123062;27;20435;-73
2022/07/26 13:24:20;;;;;;;11.10;6.78;;;;;;;;;;5107675;28;20062;-73
2022/07/26 13:26:51;;;;;;;18.33;6.25;;;;;;;;;;5107877;28;20052;-73
2022/07/26 13:29:21;;;;;;;8.25;5.80;;;;;;;;;;5106460;28;20062;-73
2022/07/26 13:31:54;;;;;;;11.00;6.15;;;;;;;;;;5107641;28;20040;-73
2022/07/26 13:34:24;;;;;;;8.85;5.38;;;;;;;;;;5107451;28;20051;-73
2022/07/26 13:37:01;;;;;;;10.55;6.03;;;;;;;;;;5107323;28;20046;-74
2022/07/26 13:39:36;;;;;;;9.30;5.60;;;;;;;;;;5107897;28;20040;-73
2022/07/26 13:42:06;;;;;;;19.40;16.55;;;;;;;;;;5107754;28;20035;-74
2022/07/26 13:44:35;;;;;;;7.88;5.53;;;;;;;;;;5106897;28;20043;-74
2022/07/26 13:47:05;;;;;;;7.57;5.43;;;;;;;;;;5105629;28;20070;-74
2022/07/26 13:49:35;;;;;;;9.32;6.10;;;;;;;;;;5107232;28;20048;-74
2022/07/26 13:52:06;;;;;;;7.95;5.05;;;;;;;;;;5107448;28;20764;-74
2022/07/26 13:54:43;;;;;;;8.13;5.45;;;;;;;;;;5107255;28;20051;-77
2022/07/26 13:57:13;;;;;;;8.43;5.40;;;;;;;;;;5106647;28;20048;-74
2022/07/26 13:59:43;;;;;;;7.57;5.38;;;;;;;;;;5107528;28;20043;-74
2022/07/26 14:02:13;;;;;;;6.05;4.82;;;;;;;;;;5107224;28;20406;-74
2022/07/26 14:04:44;;;;;;;18.35;9.75;;;;;;;;;;5107015;28;20090;-73
2022/07/26 14:07:14;;;;;;;9.55;5.03;;;;;;;;;;5107652;28;20043;-74
2022/07/26 14:09:43;;;;;;;12.35;5.47;;;;;;;;;;5107872;28;20047;-74
2022/07/26 14:12:13;;;;;;;6.15;4.85;;;;;;;;;;5106966;28;20048;-74
2022/07/26 14:14:43;;;;;;;9.18;4.82;;;;;;;;;;5089353;28;20511;-74
2022/07/26 14:17:13;;;;;;;4.75;4.22;;;;;;;;;;5106025;28;20055;-74
2022/07/26 14:19:43;;;;;;;9.23;6.22;;;;;;;;;;5107354;28;20044;-74
2022/07/26 14:22:12;;;;;;;16.73;5.30;;;;;;;;;;5107637;28;20039;-72
2022/07/26 14:24:42;;;;;;;5.65;4.60;;;;;;;;;;5107106;28;20051;-73
2022/07/26 14:27:12;;;;;;;6.82;5.05;;;;;;;;;;5107132;28;20062;-73
2022/07/26 14:29:44;;;;;;;9.82;4.68;;;;;;;;;;5107003;28;20043;-73
2022/07/26 14:32:15;;;;;;;8.70;4.60;;;;;;;;;;5104908;28;20058;-72
2022/07/26 14:34:49;;;;;;;;;;;;;;;;;;5107236;28;20047;-73
2022/07/26 14:37:19;;;;;;;6.40;4.10;;;;;;;;;;5106985;28;20278;-73
2022/07/26 14:40:11;;;;;;;16.33;4.82;;;;;;;;;;5106302;28;20040;-73
2022/07/26 14:42:42;;;;;;;7.15;4.70;;;;;;;;;;5106393;28;20039;-73
2022/07/26 14:45:14;;;;;;;6.22;4.65;;;;;;;;;;5106824;28;20035;-73
2022/07/26 14:47:44;;;;;;;8.88;5.13;;;;;;;;;;5107323;28;20059;-73
2022/07/26 14:50:14;;;;;;;21.73;5.53;;;;;;;;;;5106858;28;20059;-73
2022/07/26 14:52:48;;;;;;;11.93;6.15;;;;;;;;;;5107348;28;20051;-73
2022/07/26 14:55:19;;;;;;;7.63;4.57;;;;;;;;;;5129615;28;20032;-73
2022/07/26 14:57:53;;;;;;;11.30;5.40;;;;;;;;;;5132326;28;20022;-72
2022/07/26 15:00:23;;;;;;;6.07;4.22;;;;;;;;;;5131549;28;20028;-74
2022/07/26 15:02:52;;;;;;;12.75;5.80;;;;;;;;;;5133020;28;20027;-73